createdAt,value
2022-12-05T00:01:19.249Z,97912.63
2022-12-05T00:03:47.711Z,97921.00
2022-12-05T00:06:14.586Z,97916.56
2022-12-05T00:08:41.166Z,97918.22
2022-12-05T00:11:15.101Z,97920.00
2022-12-05T00:13:42.711Z,97917.47
2022-12-05T00:16:14.353Z,97911.94
2022-12-05T00:18:41.505Z,97901.97
2022-12-05T00:21:13.528Z,97908.25
2022-12-05T00:23:40.673Z,97908.84
2022-12-05T00:26:07.246Z,97917.13
2022-12-05T00:28:34.829Z,97922.84
2022-12-05T00:31:07.807Z,97920.00
2022-12-05T00:33:35.055Z,97926.19
2022-12-05T00:36:11.121Z,97916.56
2022-12-05T00:38:38.209Z,97913.28
2022-12-05T00:41:11.109Z,97909.03
2022-12-05T00:43:38.568Z,97896.88
2022-12-05T00:46:07.367Z,97887.50
2022-12-05T00:48:34.456Z,97906.50
2022-12-05T00:51:06.925Z,97906.25
2022-12-05T00:53:34.349Z,97912.78
2022-12-05T00:56:06.236Z,97910.44
2022-12-05T00:58:33.140Z,97912.28
2022-12-05T01:01:10.563Z,97918.97
2022-12-05T01:03:37.386Z,97904.41
2022-12-05T01:06:05.989Z,97901.88
2022-12-05T01:08:33.993Z,97901.81
2022-12-05T01:11:01.519Z,97892.09
2022-12-05T01:13:28.878Z,97893.53
2022-12-05T01:15:55.665Z,97891.84
2022-12-05T01:18:23.070Z,97889.09
2022-12-05T01:20:50.960Z,97895.38
2022-12-05T01:23:17.948Z,97889.66
2022-12-05T01:25:47.272Z,97880.19
2022-12-05T01:28:14.401Z,97895.97
2022-12-05T01:30:42.792Z,97894.50
2022-12-05T01:33:10.208Z,97891.75
2022-12-05T01:35:38.491Z,97896.69
2022-12-05T01:38:05.795Z,97895.88
2022-12-05T01:40:33.786Z,97886.47
2022-12-05T01:43:00.619Z,97896.69
2022-12-05T01:45:41.374Z,97890.59
2022-12-05T01:48:14.568Z,97889.50
2022-12-05T01:50:41.492Z,97891.91
2022-12-05T01:53:08.213Z,97896.19
2022-12-05T01:55:36.144Z,97885.22
2022-12-05T01:58:05.294Z,97880.28
2022-12-05T02:00:32.879Z,97878.44
2022-12-05T02:03:02.597Z,97876.41
2022-12-05T02:05:35.682Z,97875.00
2022-12-05T02:08:09.662Z,97873.44
2022-12-05T02:10:40.869Z,97869.63
2022-12-05T02:13:44.527Z,97871.06
2022-12-05T02:16:34.881Z,97871.31
2022-12-05T02:19:29.221Z,97864.69
2022-12-05T02:22:31.084Z,97868.72
2022-12-05T02:25:00.711Z,97867.72
2022-12-05T02:28:09.044Z,97866.13
2022-12-05T02:30:43.594Z,97859.44
2022-12-05T02:33:22.868Z,97853.47
2022-12-05T02:36:07.441Z,97838.09
2022-12-05T02:38:54.121Z,97848.63
2022-12-05T02:41:23.381Z,97834.88
2022-12-05T02:44:09.540Z,97838.16
2022-12-05T02:46:39.768Z,97837.41
2022-12-05T02:49:11.760Z,97832.22
2022-12-05T02:51:43.428Z,97842.53
2022-12-05T02:54:19.674Z,97839.91
2022-12-05T02:56:47.457Z,97835.47
2022-12-05T02:59:18.509Z,97836.38
2022-12-05T03:01:49.824Z,97830.56
2022-12-05T03:04:20.089Z,97833.72
2022-12-05T03:06:58.020Z,97836.06
2022-12-05T03:09:33.722Z,97823.63
2022-12-05T03:12:09.228Z,97836.69
2022-12-05T03:14:41.713Z,97839.22
2022-12-05T03:17:13.124Z,97833.75
2022-12-05T03:19:49.720Z,97835.63
2022-12-05T03:22:28.695Z,97844.22
2022-12-05T03:24:55.843Z,97838.47
2022-12-05T03:27:26.760Z,97838.38
2022-12-05T03:29:56.451Z,97834.97
2022-12-05T03:32:52.552Z,97842.38
2022-12-05T03:35:51.593Z,97849.09
2022-12-05T03:38:33.573Z,97854.53
2022-12-05T03:41:10.367Z,97847.94
2022-12-05T03:44:00.861Z,97849.41
2022-12-05T03:46:35.394Z,97848.59
2022-12-05T03:49:19.596Z,97854.81
2022-12-05T03:51:58.504Z,97852.53
2022-12-05T03:54:35.032Z,97858.50
2022-12-05T03:57:09.276Z,97852.78
2022-12-05T03:59:51.417Z,97852.97
2022-12-05T04:02:27.107Z,97860.19
2022-12-05T04:05:04.675Z,97861.00
2022-12-05T04:07:36.299Z,97854.88
2022-12-05T04:10:10.601Z,97852.97
2022-12-05T04:12:40.138Z,97853.59
2022-12-05T04:15:14.731Z,97859.47
2022-12-05T04:17:53.437Z,97863.66
2022-12-05T04:20:52.209Z,97857.13
2022-12-05T04:23:19.047Z,97857.66
2022-12-05T04:26:07.369Z,97861.31
2022-12-05T04:28:46.020Z,97854.72
2022-12-05T04:31:31.352Z,97849.59
2022-12-05T04:34:05.392Z,97848.28
2022-12-05T04:36:43.841Z,97853.88
2022-12-05T04:39:37.673Z,97857.06
2022-12-05T04:42:12.181Z,97849.16
2022-12-05T04:44:45.493Z,97850.75
2022-12-05T04:47:16.839Z,97855.22
2022-12-05T04:49:54.293Z,97857.22
2022-12-05T04:52:22.446Z,97855.56
2022-12-05T04:54:59.851Z,97851.25
2022-12-05T04:57:33.285Z,97851.94
2022-12-05T05:00:00.310Z,97856.88
2022-12-05T05:02:51.990Z,97851.13
2022-12-05T05:05:19.918Z,97858.97
2022-12-05T05:07:52.370Z,97858.91
2022-12-05T05:10:39.720Z,97865.69
2022-12-05T05:13:06.393Z,97858.50
2022-12-05T05:15:33.106Z,97868.22
2022-12-05T05:17:59.725Z,97862.66
2022-12-05T05:20:27.405Z,97866.47
2022-12-05T05:22:56.413Z,97868.88
2022-12-05T05:25:24.100Z,97868.03
2022-12-05T05:27:52.836Z,97868.88
2022-12-05T05:30:20.814Z,97867.22
2022-12-05T05:32:47.565Z,97872.22
2022-12-05T05:35:15.058Z,97877.16
2022-12-05T05:37:42.328Z,97868.72
2022-12-05T05:40:11.344Z,97866.22
2022-12-05T05:42:45.894Z,97868.34
2022-12-05T05:45:14.170Z,97862.41
2022-12-05T05:47:41.949Z,97875.06
2022-12-05T05:50:10.032Z,97867.53
2022-12-05T05:52:37.194Z,97877.09
2022-12-05T05:55:05.611Z,97879.69
2022-12-05T05:57:32.525Z,97875.41
2022-12-05T05:59:59.440Z,97875.41
2022-12-05T06:02:26.305Z,97872.38
2022-12-05T06:04:52.923Z,97871.63
2022-12-05T06:07:19.737Z,97868.34
2022-12-05T06:09:46.362Z,97864.19
2022-12-05T06:12:13.016Z,97862.25
2022-12-05T06:14:39.605Z,97875.84
2022-12-05T06:17:06.237Z,97863.88
2022-12-05T06:19:32.857Z,97879.41
2022-12-05T06:21:59.474Z,97875.84
2022-12-05T06:24:26.274Z,97874.47
2022-12-05T06:26:52.883Z,97877.03
2022-12-05T06:29:22.861Z,97879.78
2022-12-05T06:31:52.173Z,97882.63
2022-12-05T06:34:18.897Z,97882.19
2022-12-05T06:36:45.494Z,97882.56
2022-12-05T06:39:12.142Z,97876.41
2022-12-05T06:41:38.756Z,97893.56
2022-12-05T06:44:05.386Z,97909.91
2022-12-05T06:46:31.962Z,97909.31
2022-12-05T06:48:59.500Z,97911.56
2022-12-05T06:51:26.238Z,97919.09
2022-12-05T06:53:52.874Z,97921.94
2022-12-05T06:56:20.327Z,97913.25
2022-12-05T06:58:48.710Z,97918.00
2022-12-05T07:01:38.408Z,97916.22
2022-12-05T07:04:26.254Z,97933.50
2022-12-05T07:06:54.664Z,97922.03
2022-12-05T07:09:44.589Z,97924.94
2022-12-05T07:12:13.405Z,97918.72
2022-12-05T07:14:47.493Z,97918.16
2022-12-05T07:17:15.010Z,97925.75
2022-12-05T07:19:41.597Z,97932.06
2022-12-05T07:22:12.179Z,97941.44
2022-12-05T07:24:42.308Z,97937.00
2022-12-05T07:27:08.887Z,97951.94
2022-12-05T07:29:35.462Z,97934.25
2022-12-05T07:32:02.129Z,97937.28
2022-12-05T07:34:28.948Z,97932.19
2022-12-05T07:36:55.537Z,97931.28
2022-12-05T07:39:22.157Z,97944.66
2022-12-05T07:41:48.738Z,97942.97
2022-12-05T07:44:17.169Z,97940.03
2022-12-05T07:46:43.801Z,97932.53
2022-12-05T07:49:10.462Z,97930.88
2022-12-05T07:51:37.177Z,97927.63
2022-12-05T07:54:03.897Z,97930.63
2022-12-05T07:56:30.532Z,97932.28
2022-12-05T07:58:57.287Z,97936.38
2022-12-05T08:01:26.660Z,97944.09
2022-12-05T08:03:55.724Z,97945.84
2022-12-05T08:06:25.305Z,97941.59
2022-12-05T08:08:53.299Z,97942.41
2022-12-05T08:11:23.088Z,97945.75
2022-12-05T08:13:50.528Z,97940.13
2022-12-05T08:16:23.055Z,97952.53
2022-12-05T08:18:53.705Z,97950.13
2022-12-05T08:21:20.323Z,97944.94
2022-12-05T08:23:47.425Z,97941.69
2022-12-05T08:26:24.482Z,97930.81
2022-12-05T08:28:56.724Z,97917.53
2022-12-05T08:31:24.710Z,97934.25
2022-12-05T08:33:57.076Z,97941.13
2022-12-05T08:36:26.569Z,97938.50
2022-12-05T08:38:58.248Z,97943.81
2022-12-05T08:41:28.622Z,97941.69
2022-12-05T08:44:02.978Z,97941.97
2022-12-05T08:46:31.295Z,97944.56
2022-12-05T08:48:58.183Z,97950.97
2022-12-05T08:51:24.788Z,97944.34
2022-12-05T08:53:51.540Z,97932.00
2022-12-05T08:56:23.438Z,97947.06
2022-12-05T08:58:53.433Z,97953.28
2022-12-05T09:01:21.881Z,97957.00
2022-12-05T09:03:48.794Z,97961.38
2022-12-05T09:06:16.917Z,97972.63
2022-12-05T09:08:44.283Z,97969.56
2022-12-05T09:11:13.684Z,97964.72
2022-12-05T09:13:40.673Z,97963.44
2022-12-05T09:16:15.174Z,97958.13
2022-12-05T09:18:42.750Z,97952.66
2022-12-05T09:21:12.149Z,97947.91
2022-12-05T09:23:39.026Z,97946.97
2022-12-05T09:26:07.144Z,97940.28
2022-12-05T09:28:58.105Z,97946.06
2022-12-05T09:31:30.700Z,97944.13
2022-12-05T09:34:22.193Z,97940.91
2022-12-05T09:36:55.600Z,97947.00
2022-12-05T09:39:25.177Z,97943.50
2022-12-05T09:42:13.079Z,97951.81
2022-12-05T09:45:10.866Z,97943.66
2022-12-05T09:47:58.262Z,97933.13
2022-12-05T09:50:46.812Z,97932.44
2022-12-05T09:53:19.381Z,97934.28
2022-12-05T09:55:51.501Z,97942.66
2022-12-05T09:58:38.308Z,97941.94
2022-12-05T10:01:22.952Z,97941.56
2022-12-05T10:04:17.756Z,97947.13
2022-12-05T10:07:13.885Z,97946.69
2022-12-05T10:10:19.770Z,97938.97
2022-12-05T10:12:53.721Z,97938.88
2022-12-05T10:15:30.643Z,97938.59
2022-12-05T10:18:02.214Z,97936.97
2022-12-05T10:20:34.964Z,97932.75
2022-12-05T10:23:28.128Z,97927.72
2022-12-05T10:26:07.415Z,97922.00
2022-12-05T10:28:40.224Z,97926.09
2022-12-05T10:31:11.135Z,97923.69
2022-12-05T10:33:41.969Z,97924.03
2022-12-05T10:36:14.500Z,97915.72
2022-12-05T10:38:43.077Z,97903.28
2022-12-05T10:41:14.621Z,97907.41
2022-12-05T10:43:44.900Z,97896.97
2022-12-05T10:46:16.975Z,97898.00
2022-12-05T10:48:44.464Z,97904.53
2022-12-05T10:51:17.765Z,97916.88
2022-12-05T10:53:49.948Z,97905.59
2022-12-05T10:56:45.453Z,97896.84
2022-12-05T10:59:15.623Z,97891.00
2022-12-05T11:01:53.277Z,97897.69
2022-12-05T11:04:24.688Z,97901.53
2022-12-05T11:07:01.641Z,97892.34
2022-12-05T11:09:38.975Z,97898.19
2022-12-05T11:12:17.155Z,97896.84
2022-12-05T11:14:59.315Z,97893.91
2022-12-05T11:17:37.361Z,97896.31
2022-12-05T11:20:20.130Z,97885.75
2022-12-05T11:22:49.501Z,97904.09
2022-12-05T11:25:36.660Z,97903.88
2022-12-05T11:28:18.476Z,97884.47
2022-12-05T11:31:05.407Z,97881.13
2022-12-05T11:33:34.623Z,97861.44
2022-12-05T11:36:11.523Z,97861.66
2022-12-05T11:38:39.609Z,97870.72
2022-12-05T11:41:27.609Z,97865.00
2022-12-05T11:44:18.656Z,97851.53
2022-12-05T11:47:22.591Z,97835.16
2022-12-05T11:50:31.017Z,97838.09
2022-12-05T11:53:22.525Z,97829.72
2022-12-05T11:56:04.442Z,97824.22
2022-12-05T11:58:54.373Z,97828.72
2022-12-05T12:01:29.909Z,97822.63
2022-12-05T12:04:19.502Z,97830.59
2022-12-05T12:06:57.595Z,97816.63
2022-12-05T12:09:53.976Z,97813.28
2022-12-05T12:12:41.354Z,97812.78
2022-12-05T12:15:31.543Z,97811.22
2022-12-05T12:18:16.018Z,97805.00
2022-12-05T12:20:55.711Z,97804.16
2022-12-05T12:23:40.308Z,97814.19
2022-12-05T12:26:12.572Z,97805.03
2022-12-05T12:28:54.925Z,97795.84
2022-12-05T12:31:35.867Z,97781.00
2022-12-05T12:34:33.929Z,97782.91
2022-12-05T12:37:14.221Z,97794.34
2022-12-05T12:40:00.857Z,97802.47
2022-12-05T12:43:02.669Z,97817.06
2022-12-05T12:46:08.109Z,97818.41
2022-12-05T12:48:49.310Z,97801.22
2022-12-05T12:51:16.745Z,97786.69
2022-12-05T12:54:09.299Z,97773.09
2022-12-05T12:57:17.030Z,97771.38
2022-12-05T12:59:58.013Z,97797.13
2022-12-05T13:02:42.234Z,97785.75
2022-12-05T13:05:27.020Z,97789.22
2022-12-05T13:08:19.507Z,97790.69
2022-12-05T13:10:48.426Z,97784.13
2022-12-05T13:13:26.904Z,97776.50
2022-12-05T13:15:58.196Z,97780.38
2022-12-05T13:18:25.890Z,97786.50
2022-12-05T13:20:56.495Z,97778.59
2022-12-05T13:23:28.171Z,97776.72
2022-12-05T13:25:58.389Z,97773.06
2022-12-05T13:28:42.051Z,97774.59
2022-12-05T13:31:10.716Z,97781.59
2022-12-05T13:33:45.287Z,97774.28
2022-12-05T13:36:32.433Z,97772.19
2022-12-05T13:39:40.485Z,97775.41
2022-12-05T13:42:21.024Z,97773.59
2022-12-05T13:44:47.562Z,97774.66
2022-12-05T13:47:20.333Z,97771.97
2022-12-05T13:50:16.577Z,97778.38
2022-12-05T13:52:49.221Z,97773.59
2022-12-05T13:55:23.269Z,97781.88
2022-12-05T13:57:52.949Z,97784.84
2022-12-05T14:00:24.146Z,97784.84
2022-12-05T14:02:52.855Z,97794.47
2022-12-05T14:05:22.456Z,97788.03
2022-12-05T14:08:00.897Z,97790.66
2022-12-05T14:10:32.898Z,97786.25
2022-12-05T14:13:22.699Z,97791.19
2022-12-05T14:15:54.608Z,97792.88
2022-12-05T14:18:24.858Z,97798.38
2022-12-05T14:21:03.661Z,97798.22
2022-12-05T14:23:50.230Z,97801.72
2022-12-05T14:26:36.427Z,97801.56
2022-12-05T14:29:27.468Z,97804.44
2022-12-05T14:32:06.033Z,97796.72
2022-12-05T14:34:38.061Z,97794.31
2022-12-05T14:37:33.465Z,97799.72
2022-12-05T14:40:02.594Z,97811.97
2022-12-05T14:42:50.516Z,97806.78
2022-12-05T14:45:20.140Z,97800.66
2022-12-05T14:47:55.514Z,97794.50
2022-12-05T14:50:24.285Z,97793.19
2022-12-05T14:53:20.261Z,97791.59
2022-12-05T14:56:00.682Z,97801.16
2022-12-05T14:59:05.416Z,97805.81
2022-12-05T15:01:40.455Z,97809.50
2022-12-05T15:04:20.215Z,97800.00
2022-12-05T15:06:54.605Z,97800.13
2022-12-05T15:09:38.317Z,97791.56
2022-12-05T15:12:13.532Z,97788.41
2022-12-05T15:14:46.336Z,97797.16
2022-12-05T15:17:18.362Z,97808.41
2022-12-05T15:19:52.546Z,97798.19
2022-12-05T15:22:22.567Z,97802.19
2022-12-05T15:24:49.356Z,97809.25
2022-12-05T15:27:16.741Z,97802.88
2022-12-05T15:29:44.377Z,97797.81
2022-12-05T15:32:11.009Z,97800.44
2022-12-05T15:34:46.623Z,97805.84
2022-12-05T15:37:17.790Z,97805.94
2022-12-05T15:39:58.559Z,97804.28
2022-12-05T15:42:40.982Z,97808.38
2022-12-05T15:45:13.912Z,97807.75
2022-12-05T15:47:41.398Z,97801.03
2022-12-05T15:50:33.481Z,97802.63
2022-12-05T15:53:02.757Z,97798.47
2022-12-05T15:55:39.558Z,97801.88
2022-12-05T15:58:12.956Z,97804.22
2022-12-05T16:00:45.519Z,97803.13
2022-12-05T16:03:19.694Z,97803.38
2022-12-05T16:05:53.417Z,97804.59
2022-12-05T16:08:20.359Z,97796.88
2022-12-05T16:10:47.462Z,97797.53
2022-12-05T16:13:16.282Z,97794.38
2022-12-05T16:15:52.273Z,97801.25
2022-12-05T16:18:26.660Z,97791.31
2022-12-05T16:20:53.910Z,97787.97
2022-12-05T16:23:38.723Z,97779.22
2022-12-05T16:26:21.809Z,97790.66
2022-12-05T16:29:02.206Z,97789.00
2022-12-05T16:31:30.528Z,97792.63
2022-12-05T16:34:07.037Z,97780.25
2022-12-05T16:36:35.033Z,97778.75
2022-12-05T16:39:06.863Z,97780.69
2022-12-05T16:41:39.658Z,97777.91
2022-12-05T16:44:29.300Z,97761.66
2022-12-05T16:46:56.630Z,97763.69
2022-12-05T16:49:41.312Z,97765.81
2022-12-05T16:52:14.721Z,97768.19
2022-12-05T16:54:42.709Z,97759.22
2022-12-05T16:57:13.467Z,97769.84
2022-12-05T16:59:45.575Z,97772.06
2022-12-05T17:02:17.574Z,97772.50
2022-12-05T17:04:45.995Z,97767.09
2022-12-05T17:07:12.574Z,97765.63
2022-12-05T17:09:39.357Z,97765.81
2022-12-05T17:12:22.664Z,97767.31
2022-12-05T17:14:49.998Z,97763.22
2022-12-05T17:17:18.329Z,97765.00
2022-12-05T17:19:45.671Z,97769.53
2022-12-05T17:22:15.408Z,97771.31
2022-12-05T17:24:42.040Z,97762.22
2022-12-05T17:27:12.578Z,97755.72
2022-12-05T17:29:39.407Z,97757.56
2022-12-05T17:32:06.057Z,97753.31
2022-12-05T17:34:32.692Z,97750.88
2022-12-05T17:37:00.238Z,97748.22
2022-12-05T17:39:28.853Z,97750.13
2022-12-05T17:41:56.018Z,97751.97
2022-12-05T17:44:22.657Z,97753.09
2022-12-05T17:46:49.665Z,97733.03
2022-12-05T17:49:17.931Z,97743.53
2022-12-05T17:52:13.607Z,97738.41
2022-12-05T17:54:31.858Z,97727.69
2022-12-05T17:56:58.520Z,97741.75
2022-12-05T17:59:25.109Z,97741.00
2022-12-05T18:01:51.708Z,97749.38
2022-12-05T18:04:22.913Z,97753.84
2022-12-05T18:06:50.616Z,97756.53
2022-12-05T18:09:17.226Z,97757.78
2022-12-05T18:11:43.901Z,97751.34
2022-12-05T18:14:10.551Z,97760.09
2022-12-05T18:16:37.667Z,97755.34
2022-12-05T18:19:04.383Z,97755.13
2022-12-05T18:21:31.148Z,97751.56
2022-12-05T18:23:57.781Z,97745.38
2022-12-05T18:26:24.465Z,97738.59
2022-12-05T18:28:53.689Z,97745.50
2022-12-05T18:31:20.664Z,97746.13
2022-12-05T18:33:47.408Z,97743.53
2022-12-05T18:36:17.303Z,97741.75
2022-12-05T18:38:53.226Z,97744.91
2022-12-05T18:41:23.195Z,97752.91
2022-12-05T18:43:50.660Z,97750.13
2022-12-05T18:46:17.769Z,97732.81
2022-12-05T18:48:47.505Z,97727.63
2022-12-05T18:51:18.089Z,97739.25
2022-12-05T18:53:51.694Z,97735.91
2022-12-05T18:56:28.380Z,97735.09
2022-12-05T18:59:06.937Z,97725.59
2022-12-05T19:01:36.450Z,97731.63
2022-12-05T19:04:06.622Z,97715.94
2022-12-05T19:06:36.699Z,97718.91
2022-12-05T19:09:11.500Z,97726.72
2022-12-05T19:11:45.739Z,97715.47
2022-12-05T19:14:15.743Z,97700.69
2022-12-05T19:16:42.582Z,97701.56
2022-12-05T19:19:13.572Z,97712.78
2022-12-05T19:21:41.162Z,97703.22
2022-12-05T19:24:08.749Z,97698.47
2022-12-05T19:26:36.737Z,97703.66
2022-12-05T19:29:03.606Z,97715.56
2022-12-05T19:31:31.032Z,97717.72
2022-12-05T19:34:02.732Z,97714.81
2022-12-05T19:36:36.399Z,97701.34
2022-12-05T19:39:15.199Z,97703.66
2022-12-05T19:41:42.037Z,97706.84
2022-12-05T19:44:08.655Z,97708.63
2022-12-05T19:46:36.009Z,97712.06
2022-12-05T19:49:06.644Z,97711.31
2022-12-05T19:51:34.369Z,97719.03
2022-12-05T19:54:02.483Z,97704.25
2022-12-05T19:56:32.384Z,97681.56
2022-12-05T19:58:59.740Z,97682.91
2022-12-05T20:01:31.132Z,97674.88
2022-12-05T20:04:04.018Z,97678.22
2022-12-05T20:06:38.249Z,97668.44
2022-12-05T20:09:06.895Z,97666.88
2022-12-05T20:11:33.788Z,97675.03
2022-12-05T20:14:01.673Z,97675.03
2022-12-05T20:16:29.510Z,97675.03
2022-12-05T20:18:58.929Z,97693.25
2022-12-05T20:21:28.712Z,97685.75
2022-12-05T20:23:56.164Z,97682.84
2022-12-05T20:26:25.041Z,97669.31
2022-12-05T20:28:52.015Z,97649.31
2022-12-05T20:31:23.700Z,97639.94
2022-12-05T20:33:52.153Z,97638.81
2022-12-05T20:36:21.516Z,97644.72
2022-12-05T20:38:48.855Z,97655.56
2022-12-05T20:41:18.010Z,97660.34
2022-12-05T20:43:46.268Z,97656.16
2022-12-05T20:46:20.538Z,97641.22
2022-12-05T20:48:47.888Z,97644.53
2022-12-05T20:51:17.748Z,97634.97
2022-12-05T20:53:45.446Z,97641.22
2022-12-05T20:56:15.311Z,97658.47
2022-12-05T20:58:45.212Z,97657.22
2022-12-05T21:01:13.173Z,97652.00
2022-12-05T21:03:42.376Z,97636.00
2022-12-05T21:06:11.775Z,97642.34
2022-12-05T21:08:39.139Z,97644.72
2022-12-05T21:11:07.104Z,97629.84
2022-12-05T21:13:34.083Z,97646.41
2022-12-05T21:16:07.008Z,97664.91
2022-12-05T21:18:33.643Z,97666.44
2022-12-05T21:21:05.948Z,97675.34
2022-12-05T21:23:33.360Z,97678.25
2022-12-05T21:26:07.497Z,97694.75
2022-12-05T21:28:34.908Z,97696.47
2022-12-05T21:31:08.910Z,97698.38
2022-12-05T21:33:36.102Z,97699.56
2022-12-05T21:36:03.459Z,97689.38
2022-12-05T21:38:31.008Z,97686.13
2022-12-05T21:40:58.026Z,97673.31
2022-12-05T21:43:24.605Z,97675.84
2022-12-05T21:45:55.158Z,97680.09
2022-12-05T21:48:23.340Z,97678.00
2022-12-05T21:50:50.698Z,97666.09
2022-12-05T21:53:18.502Z,97659.03
2022-12-05T21:55:45.287Z,97639.50
2022-12-05T21:58:12.187Z,97611.19
2022-12-05T22:00:39.268Z,97620.03
2022-12-05T22:03:07.543Z,97641.34
2022-12-05T22:05:34.282Z,97627.63
2022-12-05T22:08:06.029Z,97606.63
2022-12-05T22:10:36.010Z,97634.72
2022-12-05T22:13:02.991Z,97618.00
2022-12-05T22:15:29.785Z,97641.59
2022-12-05T22:17:56.457Z,97654.97
2022-12-05T22:20:24.084Z,97656.59
2022-12-05T22:22:51.116Z,97648.28
2022-12-05T22:25:17.809Z,97649.31
2022-12-05T22:27:44.364Z,97639.53
2022-12-05T22:30:11.273Z,97637.78
2022-12-05T22:32:38.204Z,97614.97
2022-12-05T22:35:04.960Z,97615.19
2022-12-05T22:37:31.843Z,97625.38
2022-12-05T22:39:58.848Z,97633.53
2022-12-05T22:42:27.552Z,97631.66
2022-12-05T22:44:54.148Z,97634.28
2022-12-05T22:47:20.777Z,97642.25
2022-12-05T22:49:47.508Z,97623.53
2022-12-05T22:52:14.753Z,97616.97
2022-12-05T22:54:41.345Z,97604.03
2022-12-05T22:57:08.165Z,97608.28
2022-12-05T22:59:34.807Z,97606.94
2022-12-05T23:02:01.648Z,97610.38
2022-12-05T23:04:28.508Z,97612.22
2022-12-05T23:06:55.078Z,97603.69
2022-12-05T23:09:21.905Z,97599.97
2022-12-05T23:11:51.544Z,97591.84
2022-12-05T23:14:18.572Z,97592.69
2022-12-05T23:16:45.192Z,97597.88
2022-12-05T23:19:11.820Z,97595.59
2022-12-05T23:21:39.801Z,97588.06
2022-12-05T23:24:12.106Z,97580.47
2022-12-05T23:26:42.360Z,97586.78
2022-12-05T23:29:09.898Z,97581.00
2022-12-05T23:31:36.562Z,97574.47
2022-12-05T23:34:04.397Z,97576.63
2022-12-05T23:36:32.794Z,97567.84
2022-12-05T23:39:00.260Z,97570.72
2022-12-05T23:41:27.483Z,97571.69
2022-12-05T23:43:55.094Z,97587.19
2022-12-05T23:46:24.520Z,97581.38
2022-12-05T23:48:51.302Z,97581.84
2022-12-05T23:51:26.972Z,97574.69
2022-12-05T23:53:56.356Z,97568.44
2022-12-05T23:56:25.649Z,97568.78
2022-12-05T23:58:53.865Z,97576.50
